Brisas de Hatillo, Puerto Rico
Current Conditions -  °F | °C
As of 6:50 PM on Saturday 20 Dec 2014 (Local Time) from TJBQ Reporting Station
Clear Clear  
Wind Chill: 75°   Ceiling: Unl
Heat Index: 75°   Visibility: 10mi
Dew Point: 70°   Wind: 10mph
Humidity: 83%   Direction: 100°E
Pressure: 30.02"   Gusts: NA
Location:  18.4851°N, 66.8257°W
Report Text: TJBQ 202250Z 10009KT 10SM SKC 24/21 A3002 RMK RWY08 ATIS S
Loading
Personal Weather Stations






























Interactive Weather Map New forecast layout! Learn more

10-Day Weather Forecast

Advertisements
Track Severe Weather on mobile